Time;durP1;ratioP1;P1;durP2;ratioP2;P2;SDS_P1;SDS_P2;PMS_P1;PMS_P2;Temp;Humidity;BMP_temperature;BMP_pressure;BME280_temperature;BME280_humidity;BME280_pressure;Samples;Min_cycle;Max_cycle;Signal;HPM_P1;HPM_P2
2022/08/17 00:00:48;;;;;;;25.20;16.20;;;;;;;18.95;74.27;98274.39;88134;1274;98411;-70
2022/08/17 00:03:06;;;;;;;26.40;16.00;;;;;;;18.93;74.61;98271.66;88503;1271;23982;-70
2022/08/17 00:05:07;;;;;;;24.20;16.20;;;;;;;18.93;74.57;98270.13;88441;1271;23317;-71
2022/08/17 00:07:09;;;;;;;30.40;15.80;;;;;;;18.91;74.57;98269.02;88316;1271;98576;-70
2022/08/17 00:09:10;;;;;;;26.70;16.20;;;;;;;18.90;74.80;98268.55;88197;1274;25540;-70
2022/08/17 00:11:19;;;;;;;29.90;17.20;;;;;;;18.88;74.57;98273.14;88210;1273;22579;-70
2022/08/17 00:13:28;;;;;;;24.80;17.20;;;;;;;18.88;74.58;98269.60;88296;1271;99363;-70
2022/08/17 00:15:30;;;;;;;39.50;18.30;;;;;;;18.89;74.80;98268.66;88499;1274;22869;-71
2022/08/17 00:17:32;;;;;;;28.20;17.10;;;;;;;18.90;74.91;98268.07;88445;1271;25487;-71
2022/08/17 00:19:34;;;;;;;22.50;16.80;;;;;;;18.90;74.84;98260.58;88223;1274;99462;-71
2022/08/17 00:21:38;;;;;;;30.20;17.40;;;;;;;18.91;74.80;98256.04;88346;1271;22696;-70
2022/08/17 00:23:42;;;;;;;23.20;16.50;;;;;;;18.91;74.79;98257.47;88315;1274;25321;-72
2022/08/17 00:25:45;;;;;;;26.60;16.90;;;;;;;18.89;74.79;98256.59;88468;1274;99777;-71
2022/08/17 00:27:47;;;;;;;23.70;15.40;;;;;;;18.85;74.75;98254.38;88495;1271;22584;-70
2022/08/17 00:29:49;;;;;;;25.50;14.60;;;;;;;18.81;74.76;98255.66;88210;1274;23437;-71
2022/08/17 00:31:51;;;;;;;18.20;14.90;;;;;;;18.76;74.74;98260.19;88330;1271;99751;-71
2022/08/17 00:33:52;;;;;;;21.20;14.20;;;;;;;18.72;74.79;98260.79;88440;1271;24194;-72
2022/08/17 00:35:55;;;;;;;17.40;14.70;;;;;;;18.67;74.78;98261.09;88418;1271;22720;-72
2022/08/17 00:37:57;;;;;;;23.60;14.80;;;;;;;18.63;74.87;98263.98;88369;1271;99243;-71
2022/08/17 00:39:58;;;;;;;23.50;13.40;;;;;;;18.59;74.87;98267.71;88121;1274;22567;-70
2022/08/17 00:42:00;;;;;;;18.60;14.30;;;;;;;18.53;74.88;98268.75;88358;1271;22568;-70
2022/08/17 00:44:04;;;;;;;20.50;14.00;;;;;;;18.48;74.89;98271.39;88445;1271;99697;-71
2022/08/17 00:46:15;;;;;;;24.90;13.90;;;;;;;18.42;75.03;98268.90;88511;1271;25562;-71
2022/08/17 00:48:17;;;;;;;22.20;15.20;;;;;;;18.40;75.08;98269.63;88573;1271;26805;-71
2022/08/17 00:50:18;;;;;;;27.20;16.10;;;;;;;18.38;75.15;98269.23;88239;1271;99617;-71
2022/08/17 00:52:26;;;;;;;28.40;17.80;;;;;;;18.37;75.23;98269.02;88304;1273;24393;-71
2022/08/17 00:54:32;;;;;;;28.70;17.90;;;;;;;18.35;75.41;98268.12;88388;1274;26557;-71
2022/08/17 00:56:38;;;;;;;29.90;18.00;;;;;;;18.34;75.51;98269.40;88515;1274;24323;-71
2022/08/17 00:58:40;;;;;;;25.40;18.70;;;;;;;18.35;75.54;98269.54;88473;1271;24835;-71
2022/08/17 01:00:45;;;;;;;33.90;18.90;;;;;;;18.36;75.53;98271.73;88250;1274;100848;-71
2022/08/17 01:02:48;;;;;;;28.40;18.20;;;;;;;18.36;75.56;98271.53;88245;1273;25319;-71
2022/08/17 01:04:52;;;;;;;39.70;18.40;;;;;;;18.37;75.61;98272.36;88485;1271;24092;-70
2022/08/17 01:06:57;;;;;;;27.20;18.30;;;;;;;18.38;75.73;98273.02;88310;1272;98361;-70
2022/08/17 01:09:00;;;;;;;27.70;19.10;;;;;;;18.39;75.83;98276.63;88457;1271;25776;-71
2022/08/17 01:11:04;;;;;;;31.70;18.10;;;;;;;18.39;75.71;98271.31;88437;1271;24025;-71
2022/08/17 01:13:06;;;;;;;31.20;18.40;;;;;;;18.39;75.82;98269.70;88373;1274;101338;-71
2022/08/17 01:15:08;;;;;;;30.20;17.90;;;;;;;18.40;75.83;98267.48;88331;1273;22625;-70
2022/08/17 01:17:10;;;;;;;39.70;18.20;;;;;;;18.40;75.97;98273.52;88335;1274;22638;-69
2022/08/17 01:19:22;;;;;;;29.40;18.30;;;;;;;18.40;76.04;98270.64;88140;1274;99273;-71
2022/08/17 01:21:45;;;;;;;25.50;18.70;;;;;;;18.41;76.00;98270.45;88497;1271;22499;-71
2022/08/17 01:23:47;;;;;;;27.80;17.30;;;;;;;18.41;75.78;98270.05;88269;1274;22565;-73
2022/08/17 01:25:54;;;;;;;20.40;16.10;;;;;;;18.37;75.84;98269.15;88292;1271;100305;-72
2022/08/17 01:27:56;;;;;;;21.70;16.70;;;;;;;18.31;75.84;98264.17;88206;1274;25322;-71
2022/08/17 01:30:04;;;;;;;24.50;17.10;;;;;;;18.28;75.86;98259.16;88185;1274;22670;-71
2022/08/17 01:32:07;;;;;;;29.30;17.30;;;;;;;18.25;75.99;98258.36;88291;1274;99689;-71
2022/08/17 01:34:11;;;;;;;32.40;17.30;;;;;;;18.22;75.96;98252.73;88176;1274;22620;-71
2022/08/17 01:36:13;;;;;;;24.10;16.90;;;;;;;18.20;76.00;98251.16;88340;1270;22579;-71
2022/08/17 01:38:16;;;;;;;20.20;17.20;;;;;;;18.17;76.04;98250.66;88094;1274;99748;-70
2022/08/17 01:40:28;;;;;;;26.70;17.70;;;;;;;18.17;76.18;98252.14;88423;1271;22835;-70
2022/08/17 01:42:36;;;;;;;26.00;16.60;;;;;;;18.16;76.29;98256.85;88249;1274;99517;-70
2022/08/17 01:44:38;;;;;;;25.30;14.10;;;;;;;18.12;76.17;98260.22;88598;1271;22598;-71
2022/08/17 01:46:40;;;;;;;23.30;14.80;;;;;;;18.08;76.14;98264.28;88327;1271;22715;-71
2022/08/17 01:48:46;;;;;;;28.30;15.20;;;;;;;18.05;76.22;98264.96;88291;1273;100171;-69
2022/08/17 01:50:50;;;;;;;24.10;14.40;;;;;;;18.01;76.11;98270.48;88429;1271;22711;-69
2022/08/17 01:53:00;;;;;;;27.30;14.90;;;;;;;17.98;76.17;98265.97;88484;1273;22558;-70
2022/08/17 01:55:05;;;;;;;26.90;16.10;;;;;;;17.95;76.28;98267.45;88355;1271;99312;-70
2022/08/17 01:57:08;;;;;;;29.30;18.40;;;;;;;17.93;76.30;98265.34;88371;1274;22563;-69
2022/08/17 01:59:11;;;;;;;23.20;17.10;;;;;;;17.93;76.48;98265.34;88458;1270;24201;-71
2022/08/17 02:01:15;;;;;;;27.30;18.40;;;;;;;17.92;76.40;98267.60;88421;1274;98462;-71
2022/08/17 02:03:21;;;;;;;27.60;18.60;;;;;;;17.91;76.59;98266.39;88352;1273;22544;-70
2022/08/17 02:05:23;;;;;;;30.50;19.30;;;;;;;17.91;76.56;98267.08;88354;1274;22832;-70
2022/08/17 02:07:24;;;;;;;33.10;20.30;;;;;;;17.91;76.62;98268.34;88148;1274;99508;-72
2022/08/17 02:09:28;;;;;;;24.60;19.30;;;;;;;17.93;76.66;98270.88;88470;1271;23555;-71
2022/08/17 02:11:32;;;;;;;35.30;20.10;;;;;;;17.93;76.78;98276.70;88335;1274;25338;-71
2022/08/17 02:13:34;;;;;;;29.20;20.60;;;;;;;17.92;76.85;98272.54;88452;1274;99680;-71
2022/08/17 02:15:37;;;;;;;34.20;19.40;;;;;;;17.92;76.87;98279.65;88342;1273;22550;-69
2022/08/17 02:17:39;;;;;;;31.40;21.40;;;;;;;17.89;76.85;98281.24;88382;1270;22692;-72
2022/08/17 02:19:41;;;;;;;30.20;18.70;;;;;;;17.87;76.90;98279.29;88253;1274;99336;-70
2022/08/17 02:21:46;;;;;;;36.80;19.80;;;;;;;17.85;76.96;98279.27;88208;1275;22605;-70
2022/08/17 02:23:49;;;;;;;28.90;20.10;;;;;;;17.84;76.97;98281.17;88411;1274;25310;-70
2022/08/17 02:25:51;;;;;;;28.80;19.60;;;;;;;17.83;76.87;98283.91;88299;1274;99788;-70
2022/08/17 02:27:53;;;;;;;26.30;20.00;;;;;;;17.81;76.98;98280.55;88332;1274;22695;-71
2022/08/17 02:29:55;;;;;;;28.60;19.10;;;;;;;17.79;77.04;98282.55;88201;1275;22735;-71
2022/08/17 02:31:57;;;;;;;25.10;19.50;;;;;;;17.77;77.04;98288.88;88329;1274;99324;-70
2022/08/17 02:33:59;;;;;;;26.70;19.00;;;;;;;17.76;76.97;98287.38;88458;1274;22720;-71
2022/08/17 02:36:01;;;;;;;30.10;18.90;;;;;;;17.75;77.02;98287.52;88138;1274;22553;-72
2022/08/17 02:38:05;;;;;;;27.60;19.20;;;;;;;17.74;77.03;98290.77;88309;1271;99429;-70
2022/08/17 02:40:08;;;;;;;26.70;19.10;;;;;;;17.72;77.05;98296.65;88373;1273;25364;-71
2022/08/17 02:42:11;;;;;;;23.30;18.60;;;;;;;17.69;77.04;98295.80;88263;1274;22595;-71
2022/08/17 02:44:14;;;;;;;23.10;17.30;;;;;;;17.67;77.14;98295.98;88174;1274;101050;-70
2022/08/17 02:46:18;;;;;;;33.50;18.60;;;;;;;17.66;77.21;98297.38;88236;1274;22682;-70
2022/08/17 02:48:21;;;;;;;24.10;19.10;;;;;;;17.64;77.14;98296.11;88315;1273;26955;-70
2022/08/17 02:50:23;;;;;;;24.90;17.30;;;;;;;17.64;77.32;98291.83;88755;1273;99418;-70
2022/08/17 02:52:32;;;;;;;30.30;18.40;;;;;;;17.62;77.16;98295.94;88395;1274;22604;-72
2022/08/17 02:54:35;;;;;;;30.20;19.30;;;;;;;17.60;77.13;98298.04;88407;1271;99941;-71
2022/08/17 02:56:38;;;;;;;32.60;19.10;;;;;;;17.60;77.42;98299.10;88446;1274;24864;-71
2022/08/17 02:58:39;;;;;;;26.00;18.60;;;;;;;17.60;77.40;98297.55;88288;1274;22637;-71
2022/08/17 03:00:46;;;;;;;27.20;19.00;;;;;;;17.60;77.45;98296.85;88379;1271;99392;-72
2022/08/17 03:02:48;;;;;;;27.60;19.40;;;;;;;17.59;77.43;98294.48;88175;1274;22585;-70
2022/08/17 03:04:50;;;;;;;31.90;19.60;;;;;;;17.58;77.40;98290.45;88449;1271;22567;-71
2022/08/17 03:06:52;;;;;;;33.20;19.00;;;;;;;17.57;77.48;98287.36;88068;1274;98216;-71
2022/08/17 03:08:53;;;;;;;32.70;20.00;;;;;;;17.55;77.50;98286.10;88344;1274;22574;-71
2022/08/17 03:10:55;;;;;;;33.70;20.10;;;;;;;17.55;77.57;98285.38;88357;1274;25385;-71
2022/08/17 03:12:58;;;;;;;35.10;19.90;;;;;;;17.55;77.65;98288.04;88211;1274;100872;-70
2022/08/17 03:15:20;;;;;;;28.90;19.90;;;;;;;17.53;77.59;98289.56;88631;1274;23239;-71
2022/08/17 03:17:22;;;;;;;38.50;20.70;;;;;;;17.53;77.73;98285.53;87601;1271;1315509;-68
2022/08/17 03:19:24;;;;;;;32.80;18.50;;;;;;;17.52;77.63;98286.48;88029;1271;99712;-71
2022/08/17 03:21:26;;;;;;;27.60;19.00;;;;;;;17.51;77.71;98285.55;88403;1274;24317;-71
2022/08/17 03:23:27;;;;;;;29.30;19.50;;;;;;;17.49;77.74;98289.98;88483;1271;22670;-71
2022/08/17 03:25:40;;;;;;;32.50;19.50;;;;;;;17.47;77.69;98294.05;88249;1274;100815;-71
2022/08/17 03:27:41;;;;;;;31.30;19.70;;;;;;;17.46;77.80;98301.20;88299;1274;22553;-71
2022/08/17 03:29:43;;;;;;;31.30;19.70;;;;;;;17.46;77.86;98298.04;88439;1271;22581;-72
2022/08/17 03:31:48;;;;;;;38.00;20.00;;;;;;;17.47;77.84;98295.14;88398;1271;99455;-71
2022/08/17 03:33:51;;;;;;;34.30;19.40;;;;;;;17.47;77.88;98291.52;88221;1274;25432;-71
2022/08/17 03:35:52;;;;;;;31.90;21.30;;;;;;;17.47;77.86;98286.41;88419;1271;23496;-72
2022/08/17 03:37:55;;;;;;;37.80;21.40;;;;;;;17.46;77.95;98288.26;88292;1274;99989;-70
2022/08/17 03:39:57;;;;;;;37.20;21.20;;;;;;;17.45;77.89;98290.70;88358;1274;25280;-71
2022/08/17 03:42:13;;;;;;;29.70;20.70;;;;;;;17.44;78.06;98295.77;88330;1273;25708;-72
2022/08/17 03:44:15;;;;;;;38.20;22.50;;;;;;;17.42;78.02;98301.92;88336;1274;98423;-71
2022/08/17 03:58:30;;;;;;;31.00;22.90;;;;;;;17.36;78.47;98306.88;88330;1271;22542;-72
2022/08/17 04:00:34;;;;;;;42.30;24.00;;;;;;;17.38;78.49;98306.90;88018;1274;99463;-71
2022/08/17 04:02:36;;;;;;;35.70;23.60;;;;;;;17.40;78.51;98314.20;88580;1274;22568;-72
2022/08/17 04:04:38;;;;;;;39.10;23.00;;;;;;;17.41;78.33;98315.20;88270;1274;22586;-71
2022/08/17 04:06:41;;;;;;;37.50;23.30;;;;;;;17.42;78.51;98314.89;88338;1274;99471;-71
2022/08/17 04:08:43;;;;;;;54.50;24.00;;;;;;;17.43;78.46;98316.39;88461;1274;22799;-72
2022/08/17 04:10:45;;;;;;;39.40;23.80;;;;;;;17.46;78.53;98319.91;88331;1275;22564;-71
2022/08/17 04:12:51;;;;;;;40.20;23.60;;;;;;;17.47;78.50;98319.12;88165;1274;99602;-71
2022/08/17 04:14:53;;;;;;;33.50;23.50;;;;;;;17.48;78.64;98320.80;88378;1274;22560;-70
2022/08/17 04:16:54;;;;;;;45.70;23.30;;;;;;;17.49;78.60;98321.95;88285;1273;22793;-71
2022/08/17 04:18:56;;;;;;;40.40;24.20;;;;;;;17.49;78.57;98323.69;88252;1274;99359;-70
2022/08/17 04:20:58;;;;;;;36.00;25.10;;;;;;;17.50;78.63;98321.48;88198;1276;22563;-71
2022/08/17 04:23:08;;;;;;;39.90;25.00;;;;;;;17.53;78.75;98322.50;88283;1273;24295;-72
2022/08/17 04:25:17;;;;;;;40.30;24.50;;;;;;;17.55;78.74;98323.77;88450;1273;98465;-71
2022/08/17 04:27:18;;;;;;;37.10;25.50;;;;;;;17.57;78.74;98331.02;88285;1274;24208;-72
2022/08/17 04:29:22;;;;;;;40.20;25.00;;;;;;;17.59;78.82;98329.61;88254;1274;25273;-71
2022/08/17 04:31:25;;;;;;;44.60;26.00;;;;;;;17.62;78.89;98328.80;88348;1274;99577;-72
2022/08/17 04:33:29;;;;;;;34.10;24.50;;;;;;;17.65;78.88;98326.80;88194;1274;25697;-71
2022/08/17 04:35:37;;;;;;;38.00;25.10;;;;;;;17.68;78.93;98329.70;88664;1271;24345;-71
2022/08/17 04:37:40;;;;;;;40.80;25.50;;;;;;;17.71;78.85;98324.28;88149;1274;100147;-70
2022/08/17 04:42:05;;;;;;;39.20;26.50;;;;;;;17.74;78.96;98324.35;88208;1274;22683;-70
2022/08/17 04:42:15;;;;;;;42.70;26.50;;;;;;;17.77;78.96;98325.84;88260;1274;22626;-71
2022/08/17 04:44:17;;;;;;;42.30;26.70;;;;;;;17.81;79.16;98330.64;88400;1274;98348;-72
2022/08/17 04:46:21;;;;;;;45.70;25.00;;;;;;;17.85;79.01;98326.98;88536;1273;24296;-73
2022/08/17 04:48:25;;;;;;;42.10;26.70;;;;;;;17.86;79.03;98326.81;88564;1274;22574;-71
2022/08/17 04:50:27;;;;;;;44.80;25.70;;;;;;;17.91;79.07;98325.24;88206;1275;99170;-72
2022/08/17 04:52:28;;;;;;;38.40;25.70;;;;;;;17.94;79.09;98329.08;88366;1274;25444;-73
2022/08/17 04:54:30;;;;;;;41.20;25.00;;;;;;;17.98;79.09;98327.48;88344;1274;99615;-72
2022/08/17 04:56:33;;;;;;;42.20;25.00;;;;;;;18.01;79.15;98333.59;88376;1274;22626;-72
2022/08/17 04:58:35;;;;;;;36.20;24.70;;;;;;;18.04;79.03;98337.18;88598;1274;22560;-71
2022/08/17 05:00:37;;;;;;;41.50;25.00;;;;;;;18.08;79.13;98332.61;88312;1271;99741;-72
2022/08/17 05:02:49;;;;;;;44.90;25.00;;;;;;;18.12;79.21;98330.80;88439;1271;22568;-72
2022/08/17 05:04:51;;;;;;;37.40;24.00;;;;;;;18.16;79.09;98329.92;88635;1274;23896;-72
2022/08/17 05:06:55;;;;;;;37.70;23.60;;;;;;;18.18;78.94;98330.98;88147;1277;99310;-72
2022/08/17 05:08:57;;;;;;;35.10;23.60;;;;;;;18.20;78.93;98336.30;88426;1271;22778;-71
2022/08/17 05:10:59;;;;;;;43.60;24.00;;;;;;;18.24;79.01;98336.74;88336;1274;27001;-72
2022/08/17 05:13:10;;;;;;;37.80;24.40;;;;;;;18.27;79.05;98336.94;88217;1274;99654;-72
2022/08/17 05:15:15;;;;;;;38.20;24.70;;;;;;;18.31;78.93;98336.75;88297;1276;25627;-71
2022/08/17 05:17:17;;;;;;;30.20;22.40;;;;;;;18.35;79.05;98342.45;88245;1274;22649;-72
2022/08/17 05:19:19;;;;;;;40.00;26.20;;;;;;;18.40;79.02;98342.74;88450;1274;99275;-72
2022/08/17 05:21:22;;;;;;;33.80;24.10;;;;;;;18.45;79.14;98344.94;88317;1274;22834;-72
2022/08/17 05:23:26;;;;;;;37.90;25.00;;;;;;;18.50;79.08;98351.21;88449;1274;22805;-71
2022/08/17 05:25:30;;;;;;;52.80;25.80;;;;;;;18.56;79.18;98349.29;88560;1271;99483;-72
2022/08/17 05:27:32;;;;;;;35.20;25.40;;;;;;;18.61;79.12;98350.48;88252;1275;22671;-74
2022/08/17 05:29:34;;;;;;;36.60;24.00;;;;;;;18.65;79.11;98353.26;88277;1274;25367;-71
2022/08/17 05:31:35;;;;;;;37.80;26.30;;;;;;;18.70;79.06;98350.47;88108;1277;99507;-73
2022/08/17 05:33:40;;;;;;;44.30;26.70;;;;;;;18.76;79.02;98351.02;88258;1274;24223;-71
2022/08/17 05:35:47;;;;;;;40.30;25.70;;;;;;;18.82;79.02;98356.34;88295;1275;22726;-74
2022/08/17 05:37:49;;;;;;;39.10;25.10;;;;;;;18.89;79.07;98358.06;88162;1274;99516;-71
2022/08/17 05:39:52;;;;;;;38.80;25.50;;;;;;;18.94;79.22;98356.73;88219;1276;24421;-70
2022/08/17 05:41:54;;;;;;;39.60;25.00;;;;;;;18.99;79.04;98357.45;88240;1275;22995;-72
2022/08/17 05:43:56;;;;;;;41.40;25.70;;;;;;;19.06;79.15;98355.42;88294;1274;99786;-71
2022/08/17 05:46:04;;;;;;;49.00;26.40;;;;;;;19.12;79.13;98360.70;88365;1276;24220;-71
2022/08/17 05:48:07;;;;;;;46.10;26.30;;;;;;;19.19;79.15;98361.14;88591;1271;22683;-69
2022/08/17 05:50:18;;;;;;;35.00;25.40;;;;;;;19.26;79.16;98360.28;88330;1273;99595;-72
2022/08/17 05:52:32;;;;;;;;;;;;;;;19.32;79.23;98357.04;88404;1274;22759;-72
2022/08/17 05:54:55;;;;;;;40.00;25.90;;;;;;;19.38;79.20;98358.98;88497;1273;84878;-73
2022/08/17 05:57:34;;;;;;;47.50;25.40;;;;;;;19.47;79.21;98361.52;88538;1271;23115;-72
2022/08/17 05:59:58;;;;;;;51.10;25.70;;;;;;;19.56;79.17;98360.80;88529;1274;22719;-72
2022/08/17 06:02:20;;;;;;;46.50;25.50;;;;;;;19.65;79.09;98361.65;88299;1274;99445;-71
2022/08/17 06:04:26;;;;;;;44.50;25.50;;;;;;;19.73;79.06;98355.86;88230;1276;25421;-72
2022/08/17 06:06:41;;;;;;;41.40;23.40;;;;;;;19.80;79.10;98361.23;88463;1271;22798;-72
2022/08/17 06:09:14;;;;;;;32.80;24.20;;;;;;;19.87;79.01;98355.02;88406;1273;22565;-72
2022/08/17 06:11:21;;;;;;;40.70;24.60;;;;;;;19.97;79.01;98354.15;88264;1273;24297;-72
2022/08/17 06:14:06;;;;;;;37.80;22.80;;;;;;;20.04;78.93;98355.91;88486;1274;99320;-71
2022/08/17 06:16:14;;;;;;;36.90;23.30;;;;;;;20.16;78.90;98358.21;88368;1274;22626;-72
2022/08/17 06:18:19;;;;;;;37.60;24.30;;;;;;;20.24;78.89;98357.17;88311;1273;23232;-72
2022/08/17 06:20:22;;;;;;;35.00;22.70;;;;;;;20.33;78.82;98354.88;88089;1276;99965;-69
2022/08/17 06:22:32;;;;;;;38.20;22.60;;;;;;;20.42;78.87;98351.88;88271;1276;25271;-70
2022/08/17 06:24:40;;;;;;;42.60;23.00;;;;;;;20.51;78.79;98350.59;88379;1274;99545;-70
2022/08/17 06:26:44;;;;;;;35.60;23.40;;;;;;;20.61;78.67;98351.80;88543;1273;25309;-70
2022/08/17 06:28:52;;;;;;;33.50;22.80;;;;;;;20.69;78.58;98354.91;88584;1274;27056;-70
2022/08/17 06:30:58;;;;;;;40.80;22.80;;;;;;;20.77;78.57;98350.54;88336;1274;99617;-71
2022/08/17 06:33:06;;;;;;;45.10;23.30;;;;;;;20.85;78.54;98354.88;88260;1273;26025;-70
2022/08/17 06:35:11;;;;;;;34.10;22.70;;;;;;;20.95;78.50;98351.67;88760;1276;24222;-72
2022/08/17 06:37:30;;;;;;;32.90;22.10;;;;;;;21.02;78.43;98353.94;88291;1273;99294;-69
2022/08/17 06:40:02;;;;;;;46.10;23.30;;;;;;;21.11;78.37;98353.16;88340;1276;22652;-70
2022/08/17 06:42:26;;;;;;;41.90;22.60;;;;;;;21.21;78.21;98351.70;88376;1274;22580;-71
2022/08/17 06:44:50;;;;;;;29.30;21.50;;;;;;;21.27;78.06;98352.46;88278;1272;99670;-72
2022/08/17 06:47:06;;;;;;;36.30;21.20;;;;;;;21.35;78.09;98355.40;88242;1273;24346;-71
2022/08/17 06:49:12;;;;;;;34.60;21.50;;;;;;;21.43;77.96;98351.17;88084;1273;99568;-70
2022/08/17 06:51:34;;;;;;;31.90;21.90;;;;;;;21.51;77.85;98353.63;88252;1271;25082;-70
2022/08/17 06:54:09;;;;;;;29.30;20.50;;;;;;;21.58;77.83;98356.27;88153;1274;24325;-72
2022/08/17 06:56:25;;;;;;;38.80;20.60;;;;;;;21.69;77.66;98356.64;87607;1279;99517;-71
2022/08/17 06:58:30;;;;;;;34.70;22.10;;;;;;;21.76;77.59;98355.65;87748;1281;22563;-72
2022/08/17 07:00:40;;;;;;;33.00;20.00;;;;;;;21.83;77.48;98354.37;87598;1282;24225;-71
2022/08/17 07:02:44;;;;;;;33.80;20.10;;;;;;;21.92;77.46;98356.98;87672;1284;22623;-70
2022/08/17 07:04:47;;;;;;;29.30;19.80;;;;;;;22.01;77.44;98356.99;87755;1281;22595;-71
2022/08/17 07:06:56;;;;;;;33.50;19.60;;;;;;;22.10;77.27;98359.50;87605;1281;98660;-69
2022/08/17 07:09:06;;;;;;;37.90;19.50;;;;;;;22.18;77.22;98362.90;87773;1281;22620;-70
2022/08/17 07:11:15;;;;;;;32.30;19.00;;;;;;;22.26;77.21;98363.09;87808;1281;22597;-69
2022/08/17 07:13:30;;;;;;;40.80;20.30;;;;;;;22.35;77.14;98361.91;87378;1284;100043;-71
2022/08/17 07:15:43;;;;;;;35.70;19.90;;;;;;;22.44;77.20;98367.70;87645;1282;22705;-70
2022/08/17 07:17:46;;;;;;;31.60;19.10;;;;;;;22.53;77.18;98361.84;87741;1282;23384;-70
2022/08/17 07:19:52;;;;;;;40.60;19.40;;;;;;;22.63;77.09;98363.56;87592;1281;99600;-69
2022/08/17 07:22:21;;;;;;;50.40;20.00;;;;;;;22.71;77.07;98361.22;87802;1279;22684;-71
2022/08/17 07:24:58;;;;;;;38.80;19.10;;;;;;;22.81;77.02;98362.67;87725;1280;25342;-68
2022/08/17 07:27:08;;;;;;;29.70;18.60;;;;;;;22.90;77.03;98363.21;87656;1281;24830;-68
2022/08/17 07:29:15;;;;;;;36.70;20.40;;;;;;;22.99;76.93;98361.80;87703;1281;22548;-70
2022/08/17 07:31:16;;;;;;;34.30;19.40;;;;;;;23.06;76.81;98361.52;88046;1279;99759;-70
2022/08/17 07:33:27;;;;;;;50.00;18.20;;;;;;;23.13;76.68;98360.43;87973;1277;22828;-70
2022/08/17 07:35:29;;;;;;;;;;;;;;;23.24;76.63;98364.27;88131;1275;22598;-71
2022/08/17 07:37:32;;;;;;;51.10;19.60;;;;;;;23.32;76.63;98365.23;88143;1274;84512;-70
2022/08/17 07:39:33;;;;;;;39.40;19.70;;;;;;;23.40;76.51;98359.76;88147;1274;26638;-70
2022/08/17 07:41:40;;;;;;;34.10;18.50;;;;;;;23.47;76.31;98360.41;88079;1276;26009;-70
2022/08/17 07:43:42;;;;;;;51.70;19.00;;;;;;;23.55;76.49;98358.67;88100;1273;99322;-68
2022/08/17 07:48:21;;;;;;;33.10;16.90;;;;;;;23.74;76.20;98357.27;88059;1274;24006;-71
2022/08/17 07:50:26;;;;;;;29.10;17.20;;;;;;;23.82;76.18;98356.58;88037;1274;99991;-70
2022/08/17 07:52:32;;;;;;;37.80;18.70;;;;;;;23.89;76.05;98349.86;88157;1276;24255;-70
2022/08/17 07:54:40;;;;;;;39.50;17.30;;;;;;;23.96;75.83;98350.09;88137;1274;101172;-70
2022/08/17 07:56:49;;;;;;;30.70;17.80;;;;;;;24.04;75.90;98348.90;88046;1276;22736;-70
2022/08/17 07:59:06;;;;;;;24.80;17.50;;;;;;;24.11;75.91;98348.73;88254;1273;22643;-71
2022/08/17 08:01:14;;;;;;;28.70;17.70;;;;;;;24.23;75.73;98349.23;88128;1273;99866;-70
2022/08/17 08:03:30;;;;;;;31.00;18.00;;;;;;;24.32;75.72;98350.66;88081;1275;22552;-71
2022/08/17 08:05:32;;;;;;;36.20;17.90;;;;;;;24.40;75.36;98351.15;88129;1274;22553;-72
2022/08/17 08:07:53;;;;;;;33.60;18.40;;;;;;;24.48;75.28;98349.73;87892;1276;99529;-72
2022/08/17 08:10:08;;;;;;;34.40;17.40;;;;;;;24.56;75.32;98348.38;88163;1274;23243;-73
2022/08/17 08:12:44;;;;;;;28.20;17.30;;;;;;;24.67;74.93;98345.08;88034;1275;22562;-71
2022/08/17 08:14:58;;;;;;;38.70;18.00;;;;;;;24.73;74.88;98347.02;88141;1274;22926;-72
2022/08/17 08:17:04;;;;;;;34.30;16.90;;;;;;;24.79;74.94;98348.68;88101;1274;25420;-69
2022/08/17 08:19:07;;;;;;;33.90;16.10;;;;;;;24.84;74.86;98353.33;88073;1273;99587;-72
2022/08/17 08:21:23;;;;;;;48.60;17.40;;;;;;;24.92;74.80;98352.75;88105;1277;22704;-71
2022/08/17 08:23:30;;;;;;;36.70;16.20;;;;;;;25.03;74.69;98348.79;88338;1273;25682;-70
2022/08/17 08:26:03;;;;;;;30.60;17.20;;;;;;;25.15;74.46;98350.21;88106;1274;98950;-72
2022/08/17 08:28:32;;;;;;;31.40;15.60;;;;;;;25.25;74.17;98348.06;88232;1274;22555;-70
2022/08/17 08:30:42;;;;;;;37.40;16.70;;;;;;;25.38;74.11;98345.15;88073;1276;101316;-71
2022/08/17 08:32:53;;;;;;;36.60;16.60;;;;;;;25.49;74.06;98344.51;88076;1276;22736;-72
2022/08/17 08:35:16;;;;;;;36.10;16.40;;;;;;;25.65;74.03;98338.86;88292;1273;25535;-71
2022/08/17 08:37:29;;;;;;;30.40;15.70;;;;;;;25.88;73.96;98337.52;88062;1275;100015;-70
2022/08/17 08:40:15;;;;;;;45.20;16.00;;;;;;;26.04;73.37;98335.61;88413;1273;22655;-72
2022/08/17 08:42:20;;;;;;;30.80;15.10;;;;;;;26.19;72.94;98333.26;88246;1273;22936;-71
2022/08/17 08:44:46;;;;;;;23.50;13.10;;;;;;;26.32;72.68;98335.19;88143;1275;99614;-71
2022/08/17 08:47:06;;;;;;;31.20;15.10;;;;;;;26.42;72.51;98334.04;88239;1276;22581;-71
2022/08/17 08:49:33;;;;;;;27.10;14.60;;;;;;;26.56;72.68;98330.73;88229;1276;99271;-71
2022/08/17 08:51:47;;;;;;;31.80;15.20;;;;;;;26.76;72.37;98332.83;88290;1276;23017;-73
2022/08/17 08:54:02;;;;;;;29.40;15.40;;;;;;;26.85;72.08;98335.14;88464;1273;24234;-73
2022/08/17 08:56:09;;;;;;;26.90;15.20;;;;;;;26.88;71.75;98337.45;88146;1274;99311;-72
2022/08/17 08:58:20;;;;;;;30.60;15.30;;;;;;;26.87;71.85;98336.15;88415;1276;24259;-71
2022/08/17 09:00:25;;;;;;;26.90;15.00;;;;;;;26.86;71.59;98336.43;88281;1276;22698;-71
2022/08/17 09:02:39;;;;;;;38.70;14.10;;;;;;;26.83;71.21;98338.21;88156;1275;101029;-72
2022/08/17 09:04:53;;;;;;;55.00;13.90;;;;;;;26.84;71.29;98340.63;88222;1275;22797;-72
2022/08/17 09:07:08;;;;;;;27.00;13.50;;;;;;;26.84;71.05;98340.50;88147;1274;98456;-71
2022/08/17 09:09:24;;;;;;;33.50;13.60;;;;;;;26.82;70.99;98338.73;88398;1274;24316;-71
2022/08/17 09:11:34;;;;;;;27.70;13.50;;;;;;;26.83;70.71;98337.30;88398;1274;22610;-72
2022/08/17 09:14:09;;;;;;;29.60;13.20;;;;;;;26.88;70.47;98336.01;88399;1274;99629;-71
2022/08/17 09:16:28;;;;;;;26.00;13.10;;;;;;;26.99;70.09;98334.73;88302;1276;22548;-72
2022/08/17 09:18:38;;;;;;;16.90;12.70;;;;;;;27.15;69.79;98340.80;88191;1274;23960;-72
2022/08/17 09:21:15;;;;;;;26.00;12.40;;;;;;;27.24;69.49;98342.77;88444;1274;22522;-71
2022/08/17 09:23:31;;;;;;;30.30;12.00;;;;;;;27.30;69.19;98348.14;88451;1273;22547;-71
2022/08/17 09:25:48;;;;;;;29.50;11.90;;;;;;;27.30;68.67;98345.44;88455;1274;99784;-71
2022/08/17 09:27:57;;;;;;;26.90;12.90;;;;;;;27.28;68.65;98347.35;88531;1274;25282;-73
2022/08/17 09:30:07;;;;;;;21.00;12.60;;;;;;;27.28;68.64;98346.05;88476;1276;23483;-72
2022/08/17 09:32:18;;;;;;;25.90;11.80;;;;;;;27.31;68.36;98346.20;88239;1275;99255;-71
2022/08/17 09:34:37;;;;;;;17.10;11.60;;;;;;;27.39;68.01;98342.74;88373;1273;22586;-73
2022/08/17 09:36:51;;;;;;;22.40;9.30;;;;;;;27.48;67.73;98339.56;88247;1273;100165;-72
2022/08/17 09:39:05;;;;;;;19.10;9.70;;;;;;;27.56;67.01;98340.48;88316;1274;22765;-72
2022/08/17 09:41:29;;;;;;;25.10;10.10;;;;;;;27.66;66.67;98340.96;88485;1274;26937;-72
2022/08/17 09:43:45;;;;;;;15.60;9.80;;;;;;;27.82;66.64;98344.66;88376;1272;99695;-72
2022/08/17 09:45:53;;;;;;;22.60;10.10;;;;;;;27.94;66.21;98347.55;88471;1274;22536;-71
2022/08/17 09:48:04;;;;;;;21.80;11.60;;;;;;;27.97;66.31;98353.44;88730;1274;25648;-72
2022/08/17 09:50:18;;;;;;;30.20;11.20;;;;;;;27.95;66.15;98349.64;88391;1274;99344;-72
2022/08/17 09:52:23;;;;;;;20.40;10.00;;;;;;;27.93;66.04;98349.38;88483;1274;26527;-72
2022/08/17 09:54:32;;;;;;;38.90;10.80;;;;;;;27.88;66.12;98350.42;88580;1274;26722;-72
2022/08/17 09:56:37;;;;;;;27.10;9.70;;;;;;;27.89;65.70;98354.68;88416;1272;99722;-71
2022/08/17 09:58:58;;;;;;;30.80;8.60;;;;;;;28.00;65.54;98353.17;88421;1273;23341;-74
2022/08/17 10:01:04;;;;;;;;;;;;;;;28.17;65.05;98352.08;88357;1274;99552;-72
2022/08/17 10:03:27;;;;;;;15.00;9.60;;;;;;;28.26;64.21;98348.06;88497;1274;22580;-73